Etusivu
METAR-TAF:

METAR-TAF

Lentoasemat :

Greenville, Alabama, Yhdysvallat

Leveyspiiri: 31-50-44N, Pituuspiiri: 086-36-38W, korkeus merenpinnasta: 138 m

Tämänhetkinen sää

Tämä raportti tehtiin 33 minuuttia sitten, kello 14.56 UTC
Tuuli 7 kn idästä
Lämpötila 19°C
Kosteus 88%
Ilmanpaine 1007 hPa
Näkyvyys: 2.4 km
Hajonneita pilviä 300 ft:n korkeudessa
Pilvistä 2200 ft:n korkeudessa
kovaa sadetta, utua

METAR: KPRN 191456Z AUTO 08007KT 1 1/2SM +RA BR BKN003 OVC022 19/17 A2973 RMK AO2 SLP063 P0037 60048 T01890167 58002

Aika: 10:29 (15:29 UTC)


TAF: puuttuu

Säähavainnot ja -ennusteet yli 4000 lentoasemalta (METAR- ja TAF-raportit).

Käytössä olevat sääasemat on merkitty karttaan keltaisilla ja punaisilla pisteillä.

Aseta hiiri pisteen päälle nähdäksesi sääaseman nimen.

Klikkaa sitten nähdäksesi säähavainnot ja -ennusteet.

Kartan vaihtaminen: klikkaa mustalla rastilla varustettuja vihreitä pisteitä, niin voit zoomata sisään; viivalla varustettua vihreää pistettä, niin voit zoomata ulos tai vihreitä nuolia, niin pääset viereisille kartoille.


METAR-TAF: